sensor_id;sensor_type;location;lat;lon;timestamp;pressure;altitude;pressure_sealevel;temperature;humidity
57604;BME280;43429;47.380;8.484;2022-07-21T00:02:17;97264.34;;;19.98;100.00
57604;BME280;43429;47.380;8.484;2022-07-21T00:04:43;97265.44;;;20.04;100.00
57604;BME280;43429;47.380;8.484;2022-07-21T00:07:09;97264.81;;;20.02;100.00
57604;BME280;43429;47.380;8.484;2022-07-21T00:09:35;97252.09;;;20.02;100.00
57604;BME280;43429;47.380;8.484;2022-07-21T00:12:02;97242.16;;;20.16;100.00
57604;BME280;43429;47.380;8.484;2022-07-21T00:14:28;97242.31;;;20.08;100.00
57604;BME280;43429;47.380;8.484;2022-07-21T00:16:54;97235.63;;;20.04;100.00
57604;BME280;43429;47.380;8.484;2022-07-21T00:19:20;97250.81;;;19.98;100.00
57604;BME280;43429;47.380;8.484;2022-07-21T00:21:46;97257.69;;;19.94;100.00
57604;BME280;43429;47.380;8.484;2022-07-21T00:24:12;97252.25;;;19.94;100.00
57604;BME280;43429;47.380;8.484;2022-07-21T00:26:38;97258.53;;;20.01;100.00
57604;BME280;43429;47.380;8.484;2022-07-21T00:29:05;97250.56;;;19.93;100.00
57604;BME280;43429;47.380;8.484;2022-07-21T00:31:31;97256.19;;;19.92;100.00
57604;BME280;43429;47.380;8.484;2022-07-21T00:33:57;97248.69;;;19.94;100.00
57604;BME280;43429;47.380;8.484;2022-07-21T00:36:23;97255.84;;;20.01;100.00
57604;BME280;43429;47.380;8.484;2022-07-21T00:38:49;97253.34;;;20.00;100.00
57604;BME280;43429;47.380;8.484;2022-07-21T00:41:15;97255.97;;;19.93;100.00
57604;BME280;43429;47.380;8.484;2022-07-21T00:43:41;97260.56;;;19.93;100.00
57604;BME280;43429;47.380;8.484;2022-07-21T00:46:08;97246.63;;;19.96;100.00
57604;BME280;43429;47.380;8.484;2022-07-21T00:48:34;97239.31;;;19.90;100.00
57604;BME280;43429;47.380;8.484;2022-07-21T00:51:00;97242.91;;;20.03;100.00
57604;BME280;43429;47.380;8.484;2022-07-21T00:53:26;97242.09;;;20.10;100.00
57604;BME280;43429;47.380;8.484;2022-07-21T00:55:52;97247.13;;;20.13;100.00
57604;BME280;43429;47.380;8.484;2022-07-21T00:58:18;97253.38;;;20.13;100.00
57604;BME280;43429;47.380;8.484;2022-07-21T01:00:44;97249.63;;;20.14;100.00
57604;BME280;43429;47.380;8.484;2022-07-21T01:03:11;97251.94;;;20.17;100.00
57604;BME280;43429;47.380;8.484;2022-07-21T01:05:37;97245.56;;;20.31;100.00
57604;BME280;43429;47.380;8.484;2022-07-21T01:08:03;97227.09;;;20.07;100.00
57604;BME280;43429;47.380;8.484;2022-07-21T01:10:30;97244.56;;;19.98;100.00
57604;BME280;43429;47.380;8.484;2022-07-21T01:12:57;97243.34;;;20.07;100.00
57604;BME280;43429;47.380;8.484;2022-07-21T01:15:23;97233.13;;;20.09;100.00
57604;BME280;43429;47.380;8.484;2022-07-21T01:17:50;97244.22;;;20.14;100.00
57604;BME280;43429;47.380;8.484;2022-07-21T01:20:18;97239.38;;;20.03;100.00
57604;BME280;43429;47.380;8.484;2022-07-21T01:22:45;97235.84;;;20.09;100.00
57604;BME280;43429;47.380;8.484;2022-07-21T01:25:12;97238.38;;;20.11;100.00
57604;BME280;43429;47.380;8.484;2022-07-21T01:27:38;97218.59;;;20.17;100.00
57604;BME280;43429;47.380;8.484;2022-07-21T01:30:04;97231.22;;;20.03;100.00
57604;BME280;43429;47.380;8.484;2022-07-21T01:32:33;97236.88;;;20.08;100.00
57604;BME280;43429;47.380;8.484;2022-07-21T01:34:59;97235.44;;;20.05;100.00
57604;BME280;43429;47.380;8.484;2022-07-21T01:37:27;97235.63;;;20.04;100.00
57604;BME280;43429;47.380;8.484;2022-07-21T01:39:54;97229.34;;;20.03;100.00
57604;BME280;43429;47.380;8.484;2022-07-21T01:42:38;97239.34;;;19.96;100.00
57604;BME280;43429;47.380;8.484;2022-07-21T01:45:05;97233.69;;;19.91;100.00
57604;BME280;43429;47.380;8.484;2022-07-21T01:47:31;97226.59;;;19.90;100.00
57604;BME280;43429;47.380;8.484;2022-07-21T01:49:57;97231.13;;;19.83;100.00
57604;BME280;43429;47.380;8.484;2022-07-21T01:52:23;97228.19;;;19.78;100.00
57604;BME280;43429;47.380;8.484;2022-07-21T01:54:49;97224.63;;;19.77;100.00
57604;BME280;43429;47.380;8.484;2022-07-21T01:57:16;97216.13;;;19.80;100.00
57604;BME280;43429;47.380;8.484;2022-07-21T01:59:42;97216.25;;;19.66;100.00
57604;BME280;43429;47.380;8.484;2022-07-21T02:02:08;97211.91;;;19.71;100.00
57604;BME280;43429;47.380;8.484;2022-07-21T02:04:34;97218.75;;;19.67;100.00
57604;BME280;43429;47.380;8.484;2022-07-21T02:07:00;97221.69;;;19.72;100.00
57604;BME280;43429;47.380;8.484;2022-07-21T02:09:26;97224.38;;;19.66;100.00
57604;BME280;43429;47.380;8.484;2022-07-21T02:11:53;97240.03;;;19.42;100.00
57604;BME280;43429;47.380;8.484;2022-07-21T02:14:19;97231.69;;;19.44;100.00
57604;BME280;43429;47.380;8.484;2022-07-21T02:16:45;97227.22;;;19.58;100.00
57604;BME280;43429;47.380;8.484;2022-07-21T02:19:11;97228.44;;;19.55;100.00
57604;BME280;43429;47.380;8.484;2022-07-21T02:21:37;97234.44;;;19.50;100.00
57604;BME280;43429;47.380;8.484;2022-07-21T02:24:03;97228.41;;;19.48;100.00
57604;BME280;43429;47.380;8.484;2022-07-21T02:26:30;97232.19;;;19.54;100.00
57604;BME280;43429;47.380;8.484;2022-07-21T02:28:55;97225.28;;;19.51;100.00
57604;BME280;43429;47.380;8.484;2022-07-21T02:31:22;97218.13;;;19.37;100.00
57604;BME280;43429;47.380;8.484;2022-07-21T02:33:48;97224.97;;;19.33;100.00
57604;BME280;43429;47.380;8.484;2022-07-21T02:36:14;97222.28;;;19.40;100.00
57604;BME280;43429;47.380;8.484;2022-07-21T02:38:40;97225.78;;;19.34;100.00
57604;BME280;43429;47.380;8.484;2022-07-21T02:41:06;97220.75;;;19.30;100.00
57604;BME280;43429;47.380;8.484;2022-07-21T02:43:32;97230.97;;;19.28;100.00
57604;BME280;43429;47.380;8.484;2022-07-21T02:45:58;97226.41;;;19.36;100.00
57604;BME280;43429;47.380;8.484;2022-07-21T02:48:25;97222.88;;;19.35;100.00
57604;BME280;43429;47.380;8.484;2022-07-21T02:50:51;97232.66;;;19.36;100.00
57604;BME280;43429;47.380;8.484;2022-07-21T02:53:18;97231.41;;;19.32;100.00
57604;BME280;43429;47.380;8.484;2022-07-21T02:55:44;97229.91;;;19.29;100.00
57604;BME280;43429;47.380;8.484;2022-07-21T02:58:11;97239.41;;;19.19;100.00
57604;BME280;43429;47.380;8.484;2022-07-21T03:00:39;97229.41;;;19.19;100.00
57604;BME280;43429;47.380;8.484;2022-07-21T03:03:05;97228.75;;;19.11;100.00
57604;BME280;43429;47.380;8.484;2022-07-21T03:05:31;97221.06;;;19.14;100.00
57604;BME280;43429;47.380;8.484;2022-07-21T03:07:58;97219.34;;;19.07;100.00
57604;BME280;43429;47.380;8.484;2022-07-21T03:10:23;97233.19;;;18.97;100.00
57604;BME280;43429;47.380;8.484;2022-07-21T03:12:49;97231.78;;;19.01;100.00
57604;BME280;43429;47.380;8.484;2022-07-21T03:15:15;97231.78;;;19.01;100.00
57604;BME280;43429;47.380;8.484;2022-07-21T03:17:41;97239.25;;;18.99;100.00
57604;BME280;43429;47.380;8.484;2022-07-21T03:20:07;97235.91;;;18.97;100.00
57604;BME280;43429;47.380;8.484;2022-07-21T03:22:34;97242.97;;;18.98;100.00
57604;BME280;43429;47.380;8.484;2022-07-21T03:25:00;97245.31;;;19.01;100.00
57604;BME280;43429;47.380;8.484;2022-07-21T03:27:26;97243.56;;;18.93;100.00
57604;BME280;43429;47.380;8.484;2022-07-21T03:29:52;97246.97;;;19.02;100.00
57604;BME280;43429;47.380;8.484;2022-07-21T03:32:18;97238.66;;;19.03;100.00
57604;BME280;43429;47.380;8.484;2022-07-21T03:34:44;97228.63;;;18.97;100.00
57604;BME280;43429;47.380;8.484;2022-07-21T03:37:10;97243.50;;;18.87;100.00
57604;BME280;43429;47.380;8.484;2022-07-21T03:39:37;97243.19;;;18.96;100.00
57604;BME280;43429;47.380;8.484;2022-07-21T03:42:04;97256.13;;;19.01;100.00
57604;BME280;43429;47.380;8.484;2022-07-21T03:44:30;97254.63;;;18.98;100.00
57604;BME280;43429;47.380;8.484;2022-07-21T03:46:56;97249.53;;;19.10;100.00
57604;BME280;43429;47.380;8.484;2022-07-21T03:49:23;97251.03;;;19.13;100.00
57604;BME280;43429;47.380;8.484;2022-07-21T03:51:49;97254.09;;;19.10;100.00
57604;BME280;43429;47.380;8.484;2022-07-21T03:54:15;97241.25;;;19.12;100.00
57604;BME280;43429;47.380;8.484;2022-07-21T03:56:42;97249.63;;;19.17;100.00
57604;BME280;43429;47.380;8.484;2022-07-21T03:59:08;97248.53;;;19.11;100.00
57604;BME280;43429;47.380;8.484;2022-07-21T04:01:34;97250.25;;;19.19;100.00
57604;BME280;43429;47.380;8.484;2022-07-21T04:04:00;97262.97;;;19.25;100.00
57604;BME280;43429;47.380;8.484;2022-07-21T04:06:26;97255.31;;;19.28;100.00
57604;BME280;43429;47.380;8.484;2022-07-21T04:08:52;97254.19;;;19.16;100.00
57604;BME280;43429;47.380;8.484;2022-07-21T04:11:18;97257.00;;;19.29;100.00
57604;BME280;43429;47.380;8.484;2022-07-21T04:13:44;97257.19;;;19.28;100.00
57604;BME280;43429;47.380;8.484;2022-07-21T04:16:10;97261.22;;;19.39;100.00
57604;BME280;43429;47.380;8.484;2022-07-21T04:18:36;97264.59;;;19.19;100.00
57604;BME280;43429;47.380;8.484;2022-07-21T04:21:03;97275.72;;;19.31;100.00
57604;BME280;43429;47.380;8.484;2022-07-21T04:23:29;97271.59;;;19.35;100.00
57604;BME280;43429;47.380;8.484;2022-07-21T04:25:56;97263.59;;;19.48;100.00
57604;BME280;43429;47.380;8.484;2022-07-21T04:28:22;97267.53;;;19.46;100.00
57604;BME280;43429;47.380;8.484;2022-07-21T04:30:49;97275.47;;;19.47;100.00
57604;BME280;43429;47.380;8.484;2022-07-21T04:33:15;97270.38;;;19.59;100.00
57604;BME280;43429;47.380;8.484;2022-07-21T04:35:41;97275.25;;;19.70;100.00
57604;BME280;43429;47.380;8.484;2022-07-21T04:38:08;97271.00;;;19.89;100.00
57604;BME280;43429;47.380;8.484;2022-07-21T04:40:34;97274.38;;;20.04;100.00
57604;BME280;43429;47.380;8.484;2022-07-21T04:43:00;97278.41;;;19.74;100.00
57604;BME280;43429;47.380;8.484;2022-07-21T04:45:26;97276.19;;;19.91;100.00
57604;BME280;43429;47.380;8.484;2022-07-21T04:47:53;97275.50;;;19.82;100.00
57604;BME280;43429;47.380;8.484;2022-07-21T04:50:20;97280.09;;;19.81;100.00
57604;BME280;43429;47.380;8.484;2022-07-21T04:52:46;97290.31;;;19.79;100.00
57604;BME280;43429;47.380;8.484;2022-07-21T04:55:12;97290.94;;;19.81;100.00
57604;BME280;43429;47.380;8.484;2022-07-21T04:57:39;97294.44;;;19.75;100.00
57604;BME280;43429;47.380;8.484;2022-07-21T05:00:06;97282.81;;;19.81;100.00
57604;BME280;43429;47.380;8.484;2022-07-21T05:02:32;97279.59;;;19.99;100.00
57604;BME280;43429;47.380;8.484;2022-07-21T05:04:59;97284.28;;;20.25;100.00
57604;BME280;43429;47.380;8.484;2022-07-21T05:07:26;97285.56;;;20.29;100.00
57604;BME280;43429;47.380;8.484;2022-07-21T05:09:52;97285.19;;;20.32;100.00
57604;BME280;43429;47.380;8.484;2022-07-21T05:12:18;97283.41;;;20.53;100.00
57604;BME280;43429;47.380;8.484;2022-07-21T05:14:44;97286.34;;;20.58;100.00
57604;BME280;43429;47.380;8.484;2022-07-21T05:17:10;97281.53;;;20.47;100.00
57604;BME280;43429;47.380;8.484;2022-07-21T05:19:36;97286.69;;;20.42;100.00
57604;BME280;43429;47.380;8.484;2022-07-21T05:22:03;97286.88;;;20.40;100.00
57604;BME280;43429;47.380;8.484;2022-07-21T05:24:29;97284.69;;;20.57;100.00
57604;BME280;43429;47.380;8.484;2022-07-21T05:26:54;97292.47;;;20.87;100.00
57604;BME280;43429;47.380;8.484;2022-07-21T05:29:20;97291.63;;;20.79;100.00
57604;BME280;43429;47.380;8.484;2022-07-21T05:31:46;97298.25;;;20.64;100.00
57604;BME280;43429;47.380;8.484;2022-07-21T05:34:12;97291.84;;;20.84;100.00
57604;BME280;43429;47.380;8.484;2022-07-21T05:36:38;97293.75;;;20.91;100.00
57604;BME280;43429;47.380;8.484;2022-07-21T05:39:04;97292.28;;;20.88;100.00
57604;BME280;43429;47.380;8.484;2022-07-21T05:41:30;97295.19;;;20.87;100.00
57604;BME280;43429;47.380;8.484;2022-07-21T05:43:56;97295.41;;;20.98;100.00
57604;BME280;43429;47.380;8.484;2022-07-21T05:46:22;97298.16;;;21.05;100.00
57604;BME280;43429;47.380;8.484;2022-07-21T05:48:47;97298.56;;;21.08;100.00
57604;BME280;43429;47.380;8.484;2022-07-21T05:51:13;97300.44;;;21.08;100.00
57604;BME280;43429;47.380;8.484;2022-07-21T05:53:40;97303.38;;;21.06;100.00
57604;BME280;43429;47.380;8.484;2022-07-21T05:56:06;97302.09;;;20.96;100.00
57604;BME280;43429;47.380;8.484;2022-07-21T05:58:33;97309.19;;;21.03;100.00
57604;BME280;43429;47.380;8.484;2022-07-21T06:00:59;97305.31;;;21.32;100.00
57604;BME280;43429;47.380;8.484;2022-07-21T06:03:33;97306.38;;;21.65;100.00
57604;BME280;43429;47.380;8.484;2022-07-21T06:05:59;97306.97;;;21.93;100.00
57604;BME280;43429;47.380;8.484;2022-07-21T06:08:26;97309.88;;;22.05;100.00
57604;BME280;43429;47.380;8.484;2022-07-21T06:10:52;97314.66;;;22.03;100.00
57604;BME280;43429;47.380;8.484;2022-07-21T06:13:19;97309.69;;;21.86;100.00
57604;BME280;43429;47.380;8.484;2022-07-21T06:15:45;97313.44;;;21.85;100.00
57604;BME280;43429;47.380;8.484;2022-07-21T06:18:11;97320.78;;;21.78;100.00
57604;BME280;43429;47.380;8.484;2022-07-21T06:20:36;97311.56;;;22.19;100.00
57604;BME280;43429;47.380;8.484;2022-07-21T06:23:02;97318.41;;;22.28;100.00
57604;BME280;43429;47.380;8.484;2022-07-21T06:25:28;97323.44;;;22.31;100.00
57604;BME280;43429;47.380;8.484;2022-07-21T06:27:54;97330.78;;;21.91;100.00
57604;BME280;43429;47.380;8.484;2022-07-21T06:30:20;97328.09;;;21.58;100.00
57604;BME280;43429;47.380;8.484;2022-07-21T06:32:46;97330.19;;;21.43;100.00
57604;BME280;43429;47.380;8.484;2022-07-21T06:35:12;97326.00;;;21.53;100.00
57604;BME280;43429;47.380;8.484;2022-07-21T06:37:38;97341.88;;;21.43;100.00
57604;BME280;43429;47.380;8.484;2022-07-21T06:40:04;97335.41;;;21.84;100.00
57604;BME280;43429;47.380;8.484;2022-07-21T06:42:30;97332.72;;;21.77;100.00
57604;BME280;43429;47.380;8.484;2022-07-21T06:44:56;97332.47;;;22.05;100.00
57604;BME280;43429;47.380;8.484;2022-07-21T06:47:23;97332.69;;;22.04;100.00
57604;BME280;43429;47.380;8.484;2022-07-21T06:49:49;97339.56;;;22.13;100.00
57604;BME280;43429;47.380;8.484;2022-07-21T06:52:14;97339.78;;;22.18;100.00
57604;BME280;43429;47.380;8.484;2022-07-21T06:54:40;97336.19;;;22.31;100.00
57604;BME280;43429;47.380;8.484;2022-07-21T06:57:06;97350.44;;;22.26;100.00
57604;BME280;43429;47.380;8.484;2022-07-21T06:59:32;97346.69;;;22.21;100.00
57604;BME280;43429;47.380;8.484;2022-07-21T07:01:58;97344.59;;;22.16;100.00
57604;BME280;43429;47.380;8.484;2022-07-21T07:04:25;97344.34;;;22.37;100.00
57604;BME280;43429;47.380;8.484;2022-07-21T07:06:50;97342.38;;;22.58;100.00
57604;BME280;43429;47.380;8.484;2022-07-21T07:09:18;97348.25;;;22.61;100.00
57604;BME280;43429;47.380;8.484;2022-07-21T07:14:12;97345.44;;;22.81;100.00
57604;BME280;43429;47.380;8.484;2022-07-21T07:16:39;97340.47;;;22.72;100.00
57604;BME280;43429;47.380;8.484;2022-07-21T07:19:05;97347.28;;;22.94;100.00
57604;BME280;43429;47.380;8.484;2022-07-21T07:21:31;97346.28;;;22.88;100.00
57604;BME280;43429;47.380;8.484;2022-07-21T07:23:58;97341.72;;;22.69;100.00
57604;BME280;43429;47.380;8.484;2022-07-21T07:26:24;97338.88;;;22.96;100.00
57604;BME280;43429;47.380;8.484;2022-07-21T07:28:50;97339.44;;;22.66;100.00
57604;BME280;43429;47.380;8.484;2022-07-21T07:31:16;97351.06;;;22.35;100.00
57604;BME280;43429;47.380;8.484;2022-07-21T07:33:42;97341.75;;;22.62;100.00
57604;BME280;43429;47.380;8.484;2022-07-21T07:36:08;97343.00;;;22.66;100.00
57604;BME280;43429;47.380;8.484;2022-07-21T07:38:38;97351.41;;;22.52;100.00
57604;BME280;43429;47.380;8.484;2022-07-21T07:41:04;97355.25;;;22.31;100.00
57604;BME280;43429;47.380;8.484;2022-07-21T07:43:30;97357.94;;;22.37;100.00
57604;BME280;43429;47.380;8.484;2022-07-21T07:45:56;97350.81;;;22.43;100.00
57604;BME280;43429;47.380;8.484;2022-07-21T07:48:22;97359.34;;;22.53;100.00
57604;BME280;43429;47.380;8.484;2022-07-21T07:50:48;97354.06;;;22.65;100.00
57604;BME280;43429;47.380;8.484;2022-07-21T07:53:13;97343.19;;;22.65;100.00
57604;BME280;43429;47.380;8.484;2022-07-21T07:55:41;97350.34;;;22.53;100.00
57604;BME280;43429;47.380;8.484;2022-07-21T07:58:07;97348.75;;;22.90;100.00
57604;BME280;43429;47.380;8.484;2022-07-21T08:00:34;97345.25;;;22.70;100.00
57604;BME280;43429;47.380;8.484;2022-07-21T08:03:01;97350.31;;;22.66;100.00
57604;BME280;43429;47.380;8.484;2022-07-21T08:05:27;97342.34;;;22.71;100.00
57604;BME280;43429;47.380;8.484;2022-07-21T08:07:52;97335.56;;;22.87;100.00
57604;BME280;43429;47.380;8.484;2022-07-21T08:10:18;97336.25;;;23.21;100.00
57604;BME280;43429;47.380;8.484;2022-07-21T08:12:45;97339.72;;;23.59;100.00
57604;BME280;43429;47.380;8.484;2022-07-21T08:15:10;97342.25;;;24.11;100.00
57604;BME280;43429;47.380;8.484;2022-07-21T08:17:36;97330.69;;;24.34;99.76
57604;BME280;43429;47.380;8.484;2022-07-21T08:20:02;97339.75;;;24.09;100.00
57604;BME280;43429;47.380;8.484;2022-07-21T08:22:29;97349.50;;;24.42;96.05
57604;BME280;43429;47.380;8.484;2022-07-21T08:24:55;97350.31;;;24.24;96.46
57604;BME280;43429;47.380;8.484;2022-07-21T08:27:20;97344.50;;;24.57;91.75
57604;BME280;43429;47.380;8.484;2022-07-21T08:29:47;97347.19;;;24.94;92.23
57604;BME280;43429;47.380;8.484;2022-07-21T08:32:15;97343.78;;;25.17;84.21
57604;BME280;43429;47.380;8.484;2022-07-21T08:34:43;97347.53;;;25.34;86.05
57604;BME280;43429;47.380;8.484;2022-07-21T08:37:08;97334.97;;;25.15;86.86
57604;BME280;43429;47.380;8.484;2022-07-21T08:39:35;97341.50;;;25.56;80.91
57604;BME280;43429;47.380;8.484;2022-07-21T08:42:01;97339.34;;;24.86;84.71
57604;BME280;43429;47.380;8.484;2022-07-21T08:44:27;97337.97;;;25.67;78.22
57604;BME280;43429;47.380;8.484;2022-07-21T08:46:53;97339.06;;;25.24;80.27
57604;BME280;43429;47.380;8.484;2022-07-21T08:49:19;97344.09;;;25.39;78.82
57604;BME280;43429;47.380;8.484;2022-07-21T08:51:47;97337.66;;;25.33;79.60
57604;BME280;43429;47.380;8.484;2022-07-21T08:54:13;97338.75;;;24.47;84.21
57604;BME280;43429;47.380;8.484;2022-07-21T08:56:39;97342.47;;;24.53;85.33
57604;BME280;43429;47.380;8.484;2022-07-21T08:59:04;97327.44;;;24.80;85.69
57604;BME280;43429;47.380;8.484;2022-07-21T09:01:30;97342.81;;;25.11;82.57
57604;BME280;43429;47.380;8.484;2022-07-21T09:04:00;97339.97;;;25.48;78.06
57604;BME280;43429;47.380;8.484;2022-07-21T09:06:48;97334.81;;;25.82;74.76
57604;BME280;43429;47.380;8.484;2022-07-21T09:09:17;97337.91;;;25.97;71.61
57604;BME280;43429;47.380;8.484;2022-07-21T09:11:43;97340.19;;;26.00;73.14
57604;BME280;43429;47.380;8.484;2022-07-21T09:14:10;97331.88;;;26.94;68.30
57604;BME280;43429;47.380;8.484;2022-07-21T09:16:37;97331.38;;;26.97;69.09
57604;BME280;43429;47.380;8.484;2022-07-21T09:19:04;97328.00;;;27.06;68.81
57604;BME280;43429;47.380;8.484;2022-07-21T09:21:30;97321.91;;;26.76;67.15
57604;BME280;43429;47.380;8.484;2022-07-21T09:24:17;97325.97;;;27.42;63.98
57604;BME280;43429;47.380;8.484;2022-07-21T09:29:24;97325.19;;;26.14;69.40
57604;BME280;43429;47.380;8.484;2022-07-21T09:31:50;97324.25;;;25.43;69.42
57604;BME280;43429;47.380;8.484;2022-07-21T09:34:17;97326.72;;;25.87;68.72
57604;BME280;43429;47.380;8.484;2022-07-21T09:36:53;97323.88;;;26.17;70.73
57604;BME280;43429;47.380;8.484;2022-07-21T09:39:20;97322.13;;;26.11;74.24
57604;BME280;43429;47.380;8.484;2022-07-21T09:42:11;97313.22;;;26.67;71.17
57604;BME280;43429;47.380;8.484;2022-07-21T09:44:37;97311.81;;;27.05;70.18
57604;BME280;43429;47.380;8.484;2022-07-21T09:47:09;97313.41;;;26.89;67.75
57604;BME280;43429;47.380;8.484;2022-07-21T09:49:36;97308.91;;;27.40;65.17
57604;BME280;43429;47.380;8.484;2022-07-21T09:52:04;97307.00;;;26.84;68.45
57604;BME280;43429;47.380;8.484;2022-07-21T09:54:42;97310.59;;;26.72;69.19
57604;BME280;43429;47.380;8.484;2022-07-21T09:57:08;97318.84;;;27.75;65.01
57604;BME280;43429;47.380;8.484;2022-07-21T09:59:35;97314.66;;;27.55;65.96
57604;BME280;43429;47.380;8.484;2022-07-21T10:02:01;97320.03;;;27.05;66.79
57604;BME280;43429;47.380;8.484;2022-07-21T10:04:27;97318.03;;;26.37;70.03
57604;BME280;43429;47.380;8.484;2022-07-21T10:06:55;97318.34;;;27.16;66.45
57604;BME280;43429;47.380;8.484;2022-07-21T10:09:22;97315.16;;;27.07;65.21
57604;BME280;43429;47.380;8.484;2022-07-21T10:11:48;97320.28;;;26.51;67.56
57604;BME280;43429;47.380;8.484;2022-07-21T10:14:14;97318.63;;;26.50;70.88
57604;BME280;43429;47.380;8.484;2022-07-21T10:16:40;97320.94;;;26.42;69.29
57604;BME280;43429;47.380;8.484;2022-07-21T10:19:08;97308.97;;;26.60;67.25
57604;BME280;43429;47.380;8.484;2022-07-21T10:21:37;97304.63;;;26.47;70.90
57604;BME280;43429;47.380;8.484;2022-07-21T10:24:05;97307.94;;;26.37;69.32
57604;BME280;43429;47.380;8.484;2022-07-21T10:26:31;97304.75;;;26.80;67.11
57604;BME280;43429;47.380;8.484;2022-07-21T10:28:57;97303.59;;;27.34;62.77
57604;BME280;43429;47.380;8.484;2022-07-21T10:31:24;97303.94;;;27.09;62.49
57604;BME280;43429;47.380;8.484;2022-07-21T10:33:52;97302.94;;;27.43;62.04
57604;BME280;43429;47.380;8.484;2022-07-21T10:39:12;97301.84;;;27.44;58.30
57604;BME280;43429;47.380;8.484;2022-07-21T10:41:42;97292.94;;;27.20;59.51
57604;BME280;43429;47.380;8.484;2022-07-21T10:46:58;97295.28;;;27.00;59.76
57604;BME280;43429;47.380;8.484;2022-07-21T10:49:40;97293.78;;;27.21;58.71
57604;BME280;43429;47.380;8.484;2022-07-21T10:52:07;97287.28;;;27.72;56.08
57604;BME280;43429;47.380;8.484;2022-07-21T10:57:43;97297.38;;;27.38;53.90
57604;BME280;43429;47.380;8.484;2022-07-21T11:00:20;97287.66;;;27.47;52.65
57604;BME280;43429;47.380;8.484;2022-07-21T11:02:47;97290.88;;;27.61;53.66
57604;BME280;43429;47.380;8.484;2022-07-21T11:05:13;97284.75;;;27.37;54.37
57604;BME280;43429;47.380;8.484;2022-07-21T11:10:24;97291.69;;;27.28;53.91
57604;BME280;43429;47.380;8.484;2022-07-21T11:12:55;97289.59;;;26.90;54.94
57604;BME280;43429;47.380;8.484;2022-07-21T11:18:02;97281.88;;;27.94;50.04
57604;BME280;43429;47.380;8.484;2022-07-21T11:20:28;97284.47;;;27.39;51.80
57604;BME280;43429;47.380;8.484;2022-07-21T11:22:54;97276.22;;;28.23;48.30
57604;BME280;43429;47.380;8.484;2022-07-21T11:25:20;97278.53;;;28.09;49.36
57604;BME280;43429;47.380;8.484;2022-07-21T11:27:46;97263.81;;;28.37;49.45
57604;BME280;43429;47.380;8.484;2022-07-21T11:30:12;97266.00;;;28.57;48.40
57604;BME280;43429;47.380;8.484;2022-07-21T11:32:38;97264.88;;;29.02;48.42
57604;BME280;43429;47.380;8.484;2022-07-21T11:35:05;97259.97;;;28.60;48.13
57604;BME280;43429;47.380;8.484;2022-07-21T11:37:31;97251.44;;;28.56;49.84
57604;BME280;43429;47.380;8.484;2022-07-21T11:39:58;97247.88;;;29.64;46.47
57604;BME280;43429;47.380;8.484;2022-07-21T11:42:24;97242.75;;;28.65;48.33
57604;BME280;43429;47.380;8.484;2022-07-21T11:44:51;97243.69;;;29.24;47.33
57604;BME280;43429;47.380;8.484;2022-07-21T11:47:18;97239.19;;;28.91;48.14
57604;BME280;43429;47.380;8.484;2022-07-21T11:49:45;97238.72;;;28.94;48.53
57604;BME280;43429;47.380;8.484;2022-07-21T11:52:12;97240.31;;;28.68;48.19
57604;BME280;43429;47.380;8.484;2022-07-21T11:54:38;97233.84;;;29.33;48.71
57604;BME280;43429;47.380;8.484;2022-07-21T11:57:08;97233.53;;;29.57;46.00
57604;BME280;43429;47.380;8.484;2022-07-21T11:59:43;97228.94;;;29.68;46.99
57604;BME280;43429;47.380;8.484;2022-07-21T12:02:10;97221.31;;;30.22;42.59
57604;BME280;43429;47.380;8.484;2022-07-21T12:04:39;97226.69;;;30.07;44.39
57604;BME280;43429;47.380;8.484;2022-07-21T12:07:05;97219.00;;;29.61;43.33
57604;BME280;43429;47.380;8.484;2022-07-21T12:09:32;97227.84;;;29.36;45.36
57604;BME280;43429;47.380;8.484;2022-07-21T12:11:58;97212.63;;;30.46;44.73
57604;BME280;43429;47.380;8.484;2022-07-21T12:14:47;97216.72;;;31.26;41.50
57604;BME280;43429;47.380;8.484;2022-07-21T12:17:13;97207.28;;;32.09;37.91
57604;BME280;43429;47.380;8.484;2022-07-21T12:19:40;97209.56;;;29.95;41.48
57604;BME280;43429;47.380;8.484;2022-07-21T12:22:07;97218.44;;;29.00;44.60
57604;BME280;43429;47.380;8.484;2022-07-21T12:24:48;97204.22;;;30.20;41.87
57604;BME280;43429;47.380;8.484;2022-07-21T12:27:16;97200.44;;;31.86;38.22
57604;BME280;43429;47.380;8.484;2022-07-21T12:29:42;97200.94;;;32.73;35.27
57604;BME280;43429;47.380;8.484;2022-07-21T12:32:08;97198.50;;;31.76;37.31
57604;BME280;43429;47.380;8.484;2022-07-21T12:34:47;97195.75;;;32.66;35.54
57604;BME280;43429;47.380;8.484;2022-07-21T12:37:14;97195.59;;;30.69;39.24
57604;BME280;43429;47.380;8.484;2022-07-21T12:39:40;97191.75;;;30.02;41.87
57604;BME280;43429;47.380;8.484;2022-07-21T12:42:28;97191.97;;;30.58;38.90
57604;BME280;43429;47.380;8.484;2022-07-21T12:44:54;97180.41;;;32.30;36.50
57604;BME280;43429;47.380;8.484;2022-07-21T12:47:21;97191.34;;;30.31;39.13
57604;BME280;43429;47.380;8.484;2022-07-21T12:49:54;97181.25;;;32.35;35.87
57604;BME280;43429;47.380;8.484;2022-07-21T12:52:20;97176.09;;;34.58;31.74
57604;BME280;43429;47.380;8.484;2022-07-21T12:54:46;97185.38;;;33.32;33.71
57604;BME280;43429;47.380;8.484;2022-07-21T12:57:12;97185.31;;;33.03;34.88
57604;BME280;43429;47.380;8.484;2022-07-21T12:59:38;97179.72;;;31.12;37.67
57604;BME280;43429;47.380;8.484;2022-07-21T13:02:04;97177.31;;;33.98;32.65
57604;BME280;43429;47.380;8.484;2022-07-21T13:04:30;97175.91;;;35.62;29.14
57604;BME280;43429;47.380;8.484;2022-07-21T13:06:57;97176.22;;;32.97;33.63
57604;BME280;43429;47.380;8.484;2022-07-21T13:09:23;97172.25;;;31.74;35.23
57604;BME280;43429;47.380;8.484;2022-07-21T13:11:49;97170.66;;;31.32;35.75